Terminal Aerodrome Forecast
Issued by NWS

Home | Current Version | Previous Version | Text Only | Print | Product List | Glossary On
Versions: 1 2 3 4 5 6 7 8 9 10 11 12 13 14 15 16 17 18
000
FTAK31 PAJN 281722
TAFAKT
TAF
PAKT 281722Z 2818/2918 14005KT P6SM VCSH BKN035 BKN050
      TEMPO 2818/2820 BKN025 OVC035
     FM282000 VRB05KT P6SM SCT040 BKN100
     FM291400 14008KT P6SM SCT040 OVC080
      AMD LTD TO CLD AND WIND 2906/2915=

USA.gov is the U.S. government's official web portal to all federal, state and local government web resources and services.